createdAt,value
2022-07-28T00:02:06.149Z,2.00
2022-07-28T00:04:35.230Z,1.90
2022-07-28T00:07:05.059Z,1.73
2022-07-28T00:09:33.220Z,1.77
2022-07-28T00:12:01.356Z,1.88
2022-07-28T00:14:30.890Z,1.98
2022-07-28T00:16:59.770Z,1.90
2022-07-28T00:19:28.020Z,1.77
2022-07-28T00:21:56.291Z,1.90
2022-07-28T00:24:25.841Z,1.77
2022-07-28T00:26:54.004Z,1.95
2022-07-28T00:29:22.096Z,1.70
2022-07-28T00:31:50.335Z,1.70
2022-07-28T00:34:18.726Z,1.75
2022-07-28T00:36:46.927Z,1.80
2022-07-28T00:39:15.669Z,1.95
2022-07-28T00:41:45.399Z,1.90
2022-07-28T00:44:14.094Z,1.65
2022-07-28T00:46:42.552Z,1.70
2022-07-28T00:49:10.865Z,1.90
2022-07-28T00:51:40.947Z,1.98
2022-07-28T00:54:09.361Z,2.00
2022-07-28T00:56:37.543Z,2.08
2022-07-28T00:59:07.229Z,1.65
2022-07-28T01:01:35.552Z,2.10
2022-07-28T01:04:04.660Z,1.90
2022-07-28T01:06:56.158Z,1.90
2022-07-28T01:09:38.894Z,2.08
2022-07-28T01:12:15.693Z,1.92
2022-07-28T01:14:50.413Z,2.40
2022-07-28T01:17:27.555Z,2.35
2022-07-28T01:20:06.522Z,2.05
2022-07-28T01:22:52.644Z,2.42
2022-07-28T01:25:28.187Z,2.33
2022-07-28T01:28:08.079Z,2.22
2022-07-28T01:30:42.356Z,2.50
2022-07-28T01:33:21.799Z,2.60
2022-07-28T01:35:58.552Z,2.40
2022-07-28T01:38:28.331Z,2.60
2022-07-28T01:40:58.034Z,2.53
2022-07-28T01:43:29.917Z,2.80
2022-07-28T01:46:00.981Z,2.70
2022-07-28T01:48:30.882Z,3.10
2022-07-28T01:50:59.658Z,2.90
2022-07-28T01:53:32.341Z,2.90
2022-07-28T01:56:06.840Z,2.75
2022-07-28T01:58:36.560Z,2.70
2022-07-28T02:01:07.432Z,2.90
2022-07-28T02:03:36.553Z,2.90
2022-07-28T02:06:07.415Z,2.92
2022-07-28T02:08:39.555Z,3.20
2022-07-28T02:11:25.608Z,2.70
2022-07-28T02:13:56.502Z,3.28
2022-07-28T02:16:27.581Z,3.20
2022-07-28T02:18:58.162Z,3.10
2022-07-28T02:21:27.307Z,3.10
2022-07-28T02:23:56.239Z,2.85
2022-07-28T02:26:28.924Z,2.88
2022-07-28T02:29:01.280Z,3.15
2022-07-28T02:31:40.531Z,3.65
2022-07-28T02:34:14.157Z,3.08
2022-07-28T02:36:52.249Z,2.92
2022-07-28T02:39:26.351Z,3.25
2022-07-28T02:42:02.704Z,3.10
2022-07-28T02:44:36.947Z,2.70
2022-07-28T02:47:10.621Z,2.80
2022-07-28T02:49:40.991Z,2.80
2022-07-28T02:52:11.329Z,2.78
2022-07-28T02:54:42.213Z,2.92
2022-07-28T02:57:13.564Z,3.00
2022-07-28T02:59:43.917Z,2.55
2022-07-28T03:02:14.462Z,3.10
2022-07-28T03:04:58.880Z,2.90
2022-07-28T03:07:28.455Z,2.70
2022-07-28T03:09:56.992Z,3.00
2022-07-28T03:12:25.172Z,3.10
2022-07-28T03:14:53.409Z,2.92
2022-07-28T03:17:23.614Z,3.10
2022-07-28T03:19:51.999Z,2.70
2022-07-28T03:22:20.376Z,3.05
2022-07-28T03:24:51.997Z,3.00
2022-07-28T03:27:26.226Z,3.40
2022-07-28T03:30:03.660Z,2.83
2022-07-28T03:32:36.052Z,2.70
2022-07-28T03:35:04.959Z,2.92
2022-07-28T03:37:38.829Z,3.08
2022-07-28T03:40:12.456Z,3.05
2022-07-28T03:42:42.873Z,2.72
2022-07-28T03:45:11.964Z,3.20
2022-07-28T03:47:51.131Z,2.92
2022-07-28T03:50:19.820Z,2.50
2022-07-28T03:52:47.925Z,2.80
2022-07-28T03:55:17.007Z,2.95
2022-07-28T03:57:45.330Z,2.88
2022-07-28T04:00:16.118Z,2.97
2022-07-28T04:02:46.335Z,2.78
2022-07-28T04:05:16.484Z,2.80
2022-07-28T04:07:46.139Z,3.22
2022-07-28T04:10:16.089Z,3.20
2022-07-28T04:12:49.115Z,3.40
2022-07-28T04:15:18.492Z,3.35
2022-07-28T04:17:49.321Z,3.28
2022-07-28T04:20:18.363Z,3.30
2022-07-28T04:22:47.326Z,3.13
2022-07-28T04:25:20.694Z,3.30
2022-07-28T04:27:49.165Z,3.80
2022-07-28T04:30:18.943Z,3.38
2022-07-28T04:32:50.569Z,3.63
2022-07-28T04:35:19.455Z,2.95
2022-07-28T04:37:49.687Z,2.90
2022-07-28T04:40:17.905Z,3.47
2022-07-28T04:42:46.124Z,3.28
2022-07-28T04:45:14.261Z,2.90
2022-07-28T04:47:42.379Z,2.85
2022-07-28T04:50:15.803Z,3.30
2022-07-28T04:52:49.273Z,2.92
2022-07-28T04:55:18.393Z,2.78
2022-07-28T04:57:46.778Z,3.53
2022-07-28T05:00:16.036Z,3.28
2022-07-28T05:02:45.990Z,3.30
2022-07-28T05:05:15.555Z,3.03
2022-07-28T05:07:44.290Z,3.20
2022-07-28T05:10:13.596Z,3.33
2022-07-28T05:12:41.859Z,2.97
2022-07-28T05:15:11.099Z,3.17
2022-07-28T05:17:39.236Z,3.42
2022-07-28T05:20:08.611Z,3.33
2022-07-28T05:22:46.720Z,3.13
2022-07-28T05:25:17.307Z,3.08
2022-07-28T05:27:46.185Z,3.35
2022-07-28T05:30:15.766Z,3.40
2022-07-28T05:32:45.260Z,4.07
2022-07-28T05:35:13.998Z,3.83
2022-07-28T05:37:42.172Z,4.18
2022-07-28T05:40:14.827Z,3.78
2022-07-28T05:42:43.468Z,4.30
2022-07-28T05:45:17.080Z,4.30
2022-07-28T05:47:46.903Z,4.07
2022-07-28T05:50:15.865Z,3.90
2022-07-28T05:52:44.192Z,3.97
2022-07-28T05:55:14.334Z,4.10
2022-07-28T05:57:43.258Z,4.15
2022-07-28T06:00:14.507Z,5.30
2022-07-28T06:02:45.743Z,5.00
2022-07-28T06:05:14.403Z,4.28
2022-07-28T06:07:44.379Z,5.97
2022-07-28T06:10:15.327Z,5.72
2022-07-28T06:12:44.648Z,5.32
2022-07-28T06:15:14.710Z,4.00
2022-07-28T06:17:43.189Z,5.60
2022-07-28T06:20:13.121Z,5.18
2022-07-28T06:22:45.067Z,4.43
2022-07-28T06:25:16.266Z,4.05
2022-07-28T06:27:46.094Z,4.70
2022-07-28T06:30:14.903Z,5.25
2022-07-28T06:32:43.364Z,5.40
2022-07-28T06:35:12.137Z,5.65
2022-07-28T06:37:40.324Z,4.82
2022-07-28T06:40:09.551Z,6.35
2022-07-28T06:42:39.594Z,10.55
2022-07-28T06:45:08.877Z,17.65
2022-07-28T06:47:37.106Z,6.70
2022-07-28T06:50:26.481Z,4.55
2022-07-28T06:52:55.947Z,4.85
2022-07-28T06:55:24.228Z,5.28
2022-07-28T06:57:54.395Z,4.97
2022-07-28T07:00:22.743Z,5.22
2022-07-28T07:02:50.955Z,5.18
2022-07-28T07:05:19.274Z,4.20
2022-07-28T07:07:47.497Z,5.60
2022-07-28T07:10:16.213Z,6.05
2022-07-28T07:12:44.437Z,11.48
2022-07-28T07:15:14.107Z,5.40
2022-07-28T07:17:42.597Z,5.35
2022-07-28T07:20:13.493Z,4.47
2022-07-28T07:22:46.182Z,4.70
2022-07-28T07:25:16.429Z,5.20
2022-07-28T07:27:45.016Z,4.18
2022-07-28T07:30:16.370Z,5.82
2022-07-28T07:32:44.905Z,7.53
2022-07-28T07:35:13.498Z,6.20
2022-07-28T07:37:42.305Z,5.45
2022-07-28T07:40:11.789Z,7.22
2022-07-28T07:42:40.155Z,5.65
2022-07-28T07:45:09.180Z,4.70
2022-07-28T07:47:38.783Z,8.70
2022-07-28T07:50:08.120Z,7.47
2022-07-28T07:52:36.333Z,10.57
2022-07-28T07:55:04.917Z,4.38
2022-07-28T07:57:33.692Z,3.92
2022-07-28T08:00:02.125Z,5.78
2022-07-28T08:02:32.335Z,8.30
2022-07-28T08:05:02.073Z,11.77
2022-07-28T08:07:30.259Z,13.30
2022-07-28T08:09:58.451Z,5.03
2022-07-28T08:12:26.538Z,8.27
2022-07-28T08:14:54.849Z,18.23
2022-07-28T08:17:25.820Z,7.03
2022-07-28T08:19:54.465Z,8.70
2022-07-28T08:22:24.615Z,5.43
2022-07-28T08:24:52.948Z,4.35
2022-07-28T08:27:21.143Z,4.68
2022-07-28T08:29:49.318Z,4.57
2022-07-28T08:32:17.538Z,4.43
2022-07-28T08:34:45.993Z,4.38
2022-07-28T08:37:14.105Z,4.15
2022-07-28T08:39:43.569Z,4.20
2022-07-28T08:42:18.395Z,4.00
2022-07-28T08:44:52.965Z,3.70
2022-07-28T08:47:21.566Z,3.90
2022-07-28T08:49:53.042Z,4.30
2022-07-28T08:52:22.722Z,3.80
2022-07-28T08:54:54.258Z,4.20
2022-07-28T08:57:27.529Z,4.35
2022-07-28T08:59:57.071Z,3.85
2022-07-28T09:02:27.046Z,4.03
2022-07-28T09:04:56.397Z,4.28
2022-07-28T09:07:25.346Z,4.03
2022-07-28T09:09:57.459Z,4.60
2022-07-28T09:12:31.212Z,4.03
2022-07-28T09:15:02.906Z,3.95
2022-07-28T09:17:31.404Z,4.10
2022-07-28T09:19:59.568Z,5.85
2022-07-28T09:22:28.156Z,3.80
2022-07-28T09:24:57.836Z,3.40
2022-07-28T09:27:25.981Z,3.40
2022-07-28T09:30:00.457Z,3.50
2022-07-28T09:32:28.704Z,3.42
2022-07-28T09:34:56.870Z,3.20
2022-07-28T09:37:27.955Z,3.50
2022-07-28T09:39:59.424Z,3.22
2022-07-28T09:42:45.689Z,3.10
2022-07-28T09:45:22.843Z,3.35
2022-07-28T09:48:11.225Z,3.20
2022-07-28T09:50:40.745Z,3.10
2022-07-28T09:53:27.214Z,2.80
2022-07-28T09:56:00.161Z,3.05
2022-07-28T09:58:29.656Z,2.58
2022-07-28T10:01:07.612Z,2.88
2022-07-28T10:03:36.864Z,4.32
2022-07-28T10:06:09.409Z,2.90
2022-07-28T10:08:45.518Z,2.90
2022-07-28T10:11:17.134Z,2.90
2022-07-28T10:14:05.006Z,2.97
2022-07-28T10:16:34.943Z,3.08
2022-07-28T10:19:05.722Z,2.85
2022-07-28T10:21:40.401Z,3.70
2022-07-28T10:24:10.307Z,3.10
2022-07-28T10:26:45.112Z,3.30
2022-07-28T10:29:16.427Z,9.73
2022-07-28T10:31:49.939Z,3.55
2022-07-28T10:34:25.050Z,13.35
2022-07-28T10:36:55.711Z,3.20
2022-07-28T10:39:26.647Z,3.10
2022-07-28T10:41:57.690Z,2.80
2022-07-28T10:44:26.077Z,2.55
2022-07-28T10:46:55.734Z,3.00
2022-07-28T10:49:27.587Z,2.80
2022-07-28T10:52:08.768Z,2.83
2022-07-28T10:54:56.469Z,3.33
2022-07-28T10:57:27.033Z,3.45
2022-07-28T11:00:12.800Z,3.20
2022-07-28T11:02:50.461Z,4.80
2022-07-28T11:05:36.465Z,3.20
2022-07-28T11:08:07.611Z,3.65
2022-07-28T11:10:47.617Z,3.42
2022-07-28T11:13:35.962Z,3.17
2022-07-28T11:16:22.006Z,3.10
2022-07-28T11:19:36.073Z,3.10
2022-07-28T11:22:29.414Z,2.85
2022-07-28T11:25:19.208Z,2.92
2022-07-28T11:28:06.179Z,3.08
2022-07-28T11:31:00.826Z,3.13
2022-07-28T11:33:55.443Z,3.50
2022-07-28T11:36:23.534Z,3.13
2022-07-28T11:39:24.684Z,3.55
2022-07-28T11:41:53.242Z,3.45
2022-07-28T11:44:28.316Z,2.97
2022-07-28T11:47:17.307Z,3.10
2022-07-28T11:49:46.122Z,3.00
2022-07-28T11:52:21.505Z,2.88
2022-07-28T11:54:56.067Z,3.10
2022-07-28T11:57:29.215Z,2.85
2022-07-28T12:00:01.716Z,3.22
2022-07-28T12:02:36.524Z,3.28
2022-07-28T12:05:14.207Z,3.22
2022-07-28T12:07:48.498Z,3.00
2022-07-28T12:13:28.855Z,3.40
2022-07-28T12:15:57.311Z,3.38
2022-07-28T12:18:27.152Z,3.13
2022-07-28T12:21:03.043Z,3.00
2022-07-28T12:23:38.935Z,3.20
2022-07-28T12:26:31.342Z,3.38
2022-07-28T12:29:01.073Z,3.15
2022-07-28T12:31:34.142Z,3.15
2022-07-28T12:34:06.311Z,3.28
2022-07-28T12:36:35.615Z,3.10
2022-07-28T12:39:10.910Z,3.22
2022-07-28T12:41:41.017Z,3.30
2022-07-28T12:44:09.200Z,3.10
2022-07-28T12:46:40.190Z,3.22
2022-07-28T12:49:21.828Z,2.88
2022-07-28T12:51:50.071Z,3.10
2022-07-28T12:54:18.398Z,3.28
2022-07-28T12:56:50.506Z,2.80
2022-07-28T12:59:19.913Z,2.75
2022-07-28T13:01:52.885Z,2.50
2022-07-28T13:04:41.711Z,3.38
2022-07-28T13:07:13.179Z,2.90
2022-07-28T13:09:49.043Z,2.90
2022-07-28T13:12:24.911Z,2.85
2022-07-28T13:14:57.931Z,2.97
2022-07-28T13:17:31.800Z,3.08
2022-07-28T13:20:14.964Z,2.70
2022-07-28T13:22:46.924Z,3.17
2022-07-28T13:25:15.551Z,2.83
2022-07-28T13:27:49.542Z,2.92
2022-07-28T13:30:20.532Z,2.83
2022-07-28T13:32:48.806Z,2.60
2022-07-28T13:35:19.206Z,2.97
2022-07-28T13:37:49.301Z,2.85
2022-07-28T13:40:17.451Z,2.70
2022-07-28T13:42:52.848Z,2.60
2022-07-28T13:45:24.588Z,2.90
2022-07-28T13:47:53.493Z,2.70
2022-07-28T13:50:23.464Z,2.70
2022-07-28T13:52:52.421Z,2.88
2022-07-28T13:55:23.068Z,2.60
2022-07-28T13:57:51.747Z,3.00
2022-07-28T14:00:22.809Z,2.67
2022-07-28T14:02:53.557Z,2.92
2022-07-28T14:05:23.245Z,2.75
2022-07-28T14:07:51.655Z,2.60
2022-07-28T14:10:19.911Z,2.67
2022-07-28T14:12:54.899Z,2.92
2022-07-28T14:15:23.194Z,2.60
2022-07-28T14:17:51.353Z,2.65
2022-07-28T14:20:19.618Z,2.85
2022-07-28T14:22:49.158Z,4.70
2022-07-28T14:25:19.450Z,2.60
2022-07-28T14:27:51.749Z,2.80
2022-07-28T14:30:25.903Z,2.80
2022-07-28T14:32:54.952Z,2.63
2022-07-28T14:35:24.057Z,2.40
2022-07-28T14:38:41.974Z,2.55
2022-07-28T14:40:43.988Z,2.53
2022-07-28T14:43:15.127Z,2.60
2022-07-28T14:46:01.456Z,2.70
2022-07-28T14:48:34.933Z,2.72
2022-07-28T14:51:03.228Z,2.85
2022-07-28T14:53:32.932Z,2.75
2022-07-28T14:58:34.407Z,2.70
2022-07-28T15:01:02.552Z,2.60
2022-07-28T15:03:36.075Z,2.58
2022-07-28T15:06:05.031Z,2.63
2022-07-28T15:08:35.973Z,3.15
2022-07-28T15:11:04.196Z,2.88
2022-07-28T15:13:32.467Z,2.90
2022-07-28T15:16:01.957Z,2.70
2022-07-28T15:18:30.198Z,2.60
2022-07-28T15:21:00.616Z,2.80
2022-07-28T15:23:28.794Z,2.65
2022-07-28T15:25:58.387Z,2.95
2022-07-28T15:28:26.496Z,3.58
2022-07-28T15:30:54.824Z,2.60
2022-07-28T15:33:25.465Z,2.53
2022-07-28T15:35:58.973Z,2.55
2022-07-28T15:38:29.181Z,2.63
2022-07-28T15:40:59.861Z,2.92
2022-07-28T15:43:28.136Z,2.80
2022-07-28T15:45:57.505Z,3.20
2022-07-28T15:48:25.756Z,2.60
2022-07-28T15:50:53.908Z,2.38
2022-07-28T15:53:22.101Z,2.45
2022-07-28T15:55:51.578Z,2.70
2022-07-28T15:58:22.301Z,2.35
2022-07-28T16:00:51.307Z,2.33
2022-07-28T16:03:24.018Z,2.50
2022-07-28T16:05:52.408Z,2.55
2022-07-28T16:08:23.088Z,2.60
2022-07-28T16:10:52.663Z,2.70
2022-07-28T16:13:35.616Z,2.72
2022-07-28T16:16:07.442Z,2.60
2022-07-28T16:18:36.772Z,2.22
2022-07-28T16:21:08.173Z,2.10
2022-07-28T16:23:36.586Z,3.00
2022-07-28T16:26:08.001Z,2.10
2022-07-28T16:28:37.858Z,2.10
2022-07-28T16:31:06.519Z,2.08
2022-07-28T16:33:35.440Z,2.67
2022-07-28T16:36:03.957Z,2.30
2022-07-28T16:38:32.181Z,2.65
2022-07-28T16:41:00.391Z,2.85
2022-07-28T16:43:28.546Z,2.92
2022-07-28T16:45:58.274Z,2.80
2022-07-28T16:48:26.452Z,2.38
2022-07-28T16:50:54.838Z,2.80
2022-07-28T16:53:23.021Z,3.95
2022-07-28T16:55:51.543Z,3.15
2022-07-28T16:58:20.142Z,2.72
2022-07-28T17:00:48.321Z,2.97
2022-07-28T17:03:18.186Z,2.75
2022-07-28T17:05:46.660Z,2.50
2022-07-28T17:08:14.906Z,3.10
2022-07-28T17:10:43.140Z,2.50
2022-07-28T17:13:12.083Z,2.63
2022-07-28T17:15:41.737Z,2.55
2022-07-28T17:18:12.371Z,2.90
2022-07-28T17:20:42.970Z,2.85
2022-07-28T17:23:11.466Z,4.93
2022-07-28T17:26:45.634Z,3.67
2022-07-28T17:28:30.100Z,2.75
2022-07-28T17:30:58.417Z,3.20
2022-07-28T17:33:27.268Z,4.55
2022-07-28T17:35:57.000Z,2.88
2022-07-28T17:38:32.567Z,2.72
2022-07-28T17:41:04.060Z,2.63
2022-07-28T17:43:32.893Z,2.72
2022-07-28T17:46:02.968Z,2.50
2022-07-28T17:48:38.598Z,2.80
2022-07-28T17:51:09.221Z,2.60
2022-07-28T17:53:39.524Z,2.83
2022-07-28T17:56:09.200Z,2.53
2022-07-28T17:58:38.716Z,2.60
2022-07-28T18:01:11.998Z,3.00
2022-07-28T18:03:56.459Z,8.43
2022-07-28T18:06:35.483Z,3.03
2022-07-28T18:09:07.866Z,2.78
2022-07-28T18:11:56.783Z,3.10
2022-07-28T18:14:27.503Z,2.63
2022-07-28T18:16:55.978Z,2.97
2022-07-28T18:19:24.126Z,3.10
2022-07-28T18:21:57.404Z,2.72
2022-07-28T18:24:28.967Z,3.00
2022-07-28T18:26:57.491Z,3.17
2022-07-28T18:29:26.224Z,3.92
2022-07-28T18:32:08.559Z,3.70
2022-07-28T18:34:41.707Z,3.70
2022-07-28T18:37:13.288Z,3.88
2022-07-28T18:39:41.526Z,3.35
2022-07-28T18:42:12.948Z,3.10
2022-07-28T18:44:41.505Z,3.03
2022-07-28T18:47:09.698Z,3.25
2022-07-28T18:49:40.675Z,3.40
2022-07-28T18:52:13.525Z,3.60
2022-07-28T18:54:41.719Z,3.63
2022-07-28T18:57:10.095Z,3.70
2022-07-28T18:59:43.991Z,3.50
2022-07-28T19:02:17.725Z,3.50
2022-07-28T19:04:47.281Z,3.88
2022-07-28T19:07:17.204Z,4.50
2022-07-28T19:09:45.632Z,3.90
2022-07-28T19:12:13.807Z,3.90
2022-07-28T19:14:42.458Z,3.55
2022-07-28T19:17:11.360Z,3.70
2022-07-28T19:19:41.812Z,3.83
2022-07-28T19:22:10.213Z,3.22
2022-07-28T19:24:39.989Z,3.00
2022-07-28T19:27:08.233Z,3.40
2022-07-28T19:29:36.777Z,3.30
2022-07-28T19:32:06.550Z,2.92
2022-07-28T19:34:35.445Z,3.45
2022-07-28T19:37:03.880Z,2.90
2022-07-28T19:39:34.472Z,2.72
2022-07-28T19:42:11.260Z,2.80
2022-07-28T19:44:39.668Z,3.10
2022-07-28T19:47:09.662Z,2.90
2022-07-28T19:49:39.538Z,2.85
2022-07-28T19:52:08.767Z,2.60
2022-07-28T19:54:37.066Z,2.90
2022-07-28T19:57:12.141Z,2.97
2022-07-28T19:59:40.985Z,2.67
2022-07-28T20:02:09.551Z,2.75
2022-07-28T20:04:37.898Z,2.75
2022-07-28T20:07:08.342Z,2.70
2022-07-28T20:09:36.474Z,2.95
2022-07-28T20:12:08.818Z,2.90
2022-07-28T20:14:39.795Z,2.65
2022-07-28T20:17:20.092Z,2.80
2022-07-28T20:20:02.430Z,2.90
2022-07-28T20:22:30.931Z,2.70
2022-07-28T20:24:59.138Z,2.83
2022-07-28T20:27:28.752Z,2.67
2022-07-28T20:29:59.336Z,2.90
2022-07-28T20:32:30.425Z,2.85
2022-07-28T20:34:58.834Z,2.80
2022-07-28T20:37:34.115Z,2.88
2022-07-28T20:40:06.901Z,3.20
2022-07-28T20:42:37.095Z,3.03
2022-07-28T20:45:06.119Z,3.00
2022-07-28T20:47:35.042Z,2.67
2022-07-28T20:50:05.312Z,3.78
2022-07-28T20:52:34.939Z,3.08
2022-07-28T20:55:04.572Z,2.58
2022-07-28T20:57:32.839Z,2.60
2022-07-28T21:00:03.879Z,2.58
2022-07-28T21:02:32.179Z,2.72
2022-07-28T21:05:00.411Z,2.45
2022-07-28T21:08:04.698Z,2.75
2022-07-28T21:10:16.805Z,2.97
2022-07-28T21:12:44.927Z,2.88
2022-07-28T21:15:14.792Z,2.70
2022-07-28T21:17:43.086Z,2.60
2022-07-28T21:20:12.167Z,2.90
2022-07-28T21:22:40.447Z,3.25
2022-07-28T21:25:09.395Z,2.85
2022-07-28T21:27:51.350Z,2.63
2022-07-28T21:30:27.931Z,2.97
2022-07-28T21:32:56.483Z,2.60
2022-07-28T21:35:24.953Z,2.90
2022-07-28T21:37:53.238Z,3.20
2022-07-28T21:40:21.438Z,2.47
2022-07-28T21:42:49.600Z,2.90
2022-07-28T21:45:18.005Z,2.42
2022-07-28T21:47:47.530Z,2.90
2022-07-28T21:50:15.959Z,2.60
2022-07-28T21:52:44.215Z,2.80
2022-07-28T21:55:13.005Z,2.95
2022-07-28T21:57:41.218Z,2.80
2022-07-28T22:00:12.133Z,3.22
2022-07-28T22:02:41.196Z,3.10
2022-07-28T22:05:12.118Z,3.28
2022-07-28T22:07:40.402Z,2.85
2022-07-28T22:10:09.225Z,2.85
2022-07-28T22:12:37.338Z,3.00
2022-07-28T22:15:06.270Z,2.97
2022-07-28T22:17:34.378Z,2.88
2022-07-28T22:20:02.526Z,2.97
2022-07-28T22:22:32.009Z,3.00
2022-07-28T22:25:00.164Z,3.05
2022-07-28T22:27:28.435Z,3.00
2022-07-28T22:29:56.712Z,3.05
2022-07-28T22:32:28.714Z,3.22
2022-07-28T22:34:57.763Z,3.17
2022-07-28T22:37:25.971Z,3.00
2022-07-28T22:39:56.030Z,3.30
2022-07-28T22:42:24.275Z,3.20
2022-07-28T22:44:52.414Z,3.03
2022-07-28T22:47:20.655Z,2.90
2022-07-28T22:49:49.064Z,2.83
2022-07-28T22:52:17.249Z,3.75
2022-07-28T22:54:45.318Z,3.22
2022-07-28T22:57:14.811Z,3.15
2022-07-28T22:59:45.072Z,3.03
2022-07-28T23:02:17.012Z,3.25
2022-07-28T23:04:51.165Z,3.42
2022-07-28T23:07:20.055Z,3.35
2022-07-28T23:10:09.410Z,3.08
2022-07-28T23:12:39.536Z,3.28
2022-07-28T23:15:08.578Z,3.60
2022-07-28T23:17:37.337Z,3.47
2022-07-28T23:20:07.103Z,3.08
2022-07-28T23:22:35.331Z,3.60
2022-07-28T23:25:04.159Z,3.15
2022-07-28T23:27:32.537Z,3.10
2022-07-28T23:30:02.117Z,3.28
2022-07-28T23:32:30.284Z,3.15
2022-07-28T23:34:58.516Z,2.83
2022-07-28T23:37:26.604Z,3.30
2022-07-28T23:39:54.748Z,3.22
2022-07-28T23:42:23.263Z,3.35
2022-07-28T23:44:51.387Z,3.00
2022-07-28T23:47:20.917Z,3.20
2022-07-28T23:49:49.090Z,3.40
2022-07-28T23:52:17.242Z,3.08
2022-07-28T23:54:45.363Z,3.10
2022-07-28T23:57:13.539Z,3.00
2022-07-28T23:59:41.659Z,2.97
